sensor_id;sensor_type;location;lat;lon;timestamp;P1;durP1;ratioP1;P2;durP2;ratioP2
7753;SDS011;3921;42.266;23.122;2022-12-07T00:01:46;39.20;;;22.80;;
7753;SDS011;3921;42.266;23.122;2022-12-07T00:04:17;34.53;;;19.10;;
7753;SDS011;3921;42.266;23.122;2022-12-07T00:06:50;35.17;;;19.40;;
7753;SDS011;3921;42.266;23.122;2022-12-07T00:09:19;28.70;;;18.47;;
7753;SDS011;3921;42.266;23.122;2022-12-07T00:11:48;26.60;;;16.73;;
7753;SDS011;3921;42.266;23.122;2022-12-07T00:14:17;29.57;;;17.77;;
7753;SDS011;3921;42.266;23.122;2022-12-07T00:16:58;35.87;;;21.43;;
7753;SDS011;3921;42.266;23.122;2022-12-07T00:19:26;35.33;;;22.00;;
7753;SDS011;3921;42.266;23.122;2022-12-07T00:21:53;41.47;;;22.77;;
7753;SDS011;3921;42.266;23.122;2022-12-07T00:24:23;36.73;;;21.47;;
7753;SDS011;3921;42.266;23.122;2022-12-07T00:26:52;36.70;;;21.83;;
7753;SDS011;3921;42.266;23.122;2022-12-07T00:29:19;35.70;;;20.73;;
7753;SDS011;3921;42.266;23.122;2022-12-07T00:31:48;29.10;;;18.77;;
7753;SDS011;3921;42.266;23.122;2022-12-07T00:34:17;31.13;;;18.07;;
7753;SDS011;3921;42.266;23.122;2022-12-07T00:36:48;29.90;;;18.00;;
7753;SDS011;3921;42.266;23.122;2022-12-07T00:39:15;36.43;;;19.73;;
7753;SDS011;3921;42.266;23.122;2022-12-07T00:41:43;36.23;;;20.13;;
7753;SDS011;3921;42.266;23.122;2022-12-07T00:44:13;35.03;;;19.70;;
7753;SDS011;3921;42.266;23.122;2022-12-07T00:46:40;33.13;;;19.67;;
7753;SDS011;3921;42.266;23.122;2022-12-07T00:49:10;33.27;;;18.87;;
7753;SDS011;3921;42.266;23.122;2022-12-07T00:51:44;35.13;;;18.47;;
7753;SDS011;3921;42.266;23.122;2022-12-07T00:54:13;31.30;;;18.23;;
7753;SDS011;3921;42.266;23.122;2022-12-07T00:56:43;29.33;;;17.53;;
7753;SDS011;3921;42.266;23.122;2022-12-07T00:59:17;35.60;;;17.70;;
7753;SDS011;3921;42.266;23.122;2022-12-07T01:02:00;29.90;;;17.80;;
7753;SDS011;3921;42.266;23.122;2022-12-07T01:04:34;31.90;;;19.33;;
7753;SDS011;3921;42.266;23.122;2022-12-07T01:07:03;33.43;;;18.77;;
7753;SDS011;3921;42.266;23.122;2022-12-07T01:09:31;32.43;;;19.63;;
7753;SDS011;3921;42.266;23.122;2022-12-07T01:11:59;32.67;;;18.50;;
7753;SDS011;3921;42.266;23.122;2022-12-07T01:14:45;30.77;;;18.37;;
7753;SDS011;3921;42.266;23.122;2022-12-07T01:17:22;31.00;;;17.23;;
7753;SDS011;3921;42.266;23.122;2022-12-07T01:19:54;28.17;;;17.33;;
7753;SDS011;3921;42.266;23.122;2022-12-07T01:22:28;28.97;;;17.33;;
7753;SDS011;3921;42.266;23.122;2022-12-07T01:25:03;28.93;;;16.50;;
7753;SDS011;3921;42.266;23.122;2022-12-07T01:27:58;25.00;;;16.70;;
7753;SDS011;3921;42.266;23.122;2022-12-07T01:33:12;27.30;;;16.70;;
7753;SDS011;3921;42.266;23.122;2022-12-07T01:35:54;24.80;;;15.87;;
7753;SDS011;3921;42.266;23.122;2022-12-07T01:38:42;28.07;;;17.03;;
7753;SDS011;3921;42.266;23.122;2022-12-07T01:41:18;26.07;;;15.53;;
7753;SDS011;3921;42.266;23.122;2022-12-07T01:46:48;24.20;;;13.17;;
7753;SDS011;3921;42.266;23.122;2022-12-07T01:49:18;21.13;;;13.83;;
7753;SDS011;3921;42.266;23.122;2022-12-07T01:51:57;20.87;;;13.20;;
7753;SDS011;3921;42.266;23.122;2022-12-07T01:54:30;20.57;;;12.40;;
7753;SDS011;3921;42.266;23.122;2022-12-07T01:57:01;23.67;;;13.57;;
7753;SDS011;3921;42.266;23.122;2022-12-07T01:59:37;20.10;;;12.13;;
7753;SDS011;3921;42.266;23.122;2022-12-07T02:02:17;22.00;;;12.47;;
7753;SDS011;3921;42.266;23.122;2022-12-07T02:05:03;23.97;;;12.97;;
7753;SDS011;3921;42.266;23.122;2022-12-07T02:07:38;18.27;;;11.87;;
7753;SDS011;3921;42.266;23.122;2022-12-07T02:10:15;19.33;;;12.50;;
7753;SDS011;3921;42.266;23.122;2022-12-07T02:12:50;19.53;;;11.07;;
7753;SDS011;3921;42.266;23.122;2022-12-07T02:15:21;20.57;;;11.63;;
7753;SDS011;3921;42.266;23.122;2022-12-07T02:17:54;18.33;;;11.87;;
7753;SDS011;3921;42.266;23.122;2022-12-07T02:20:28;17.97;;;11.60;;
7753;SDS011;3921;42.266;23.122;2022-12-07T02:29:24;19.83;;;11.70;;
7753;SDS011;3921;42.266;23.122;2022-12-07T02:31:59;22.77;;;12.57;;
7753;SDS011;3921;42.266;23.122;2022-12-07T02:34:37;21.27;;;12.60;;
7753;SDS011;3921;42.266;23.122;2022-12-07T02:37:28;19.77;;;12.17;;
7753;SDS011;3921;42.266;23.122;2022-12-07T02:40:07;20.17;;;11.63;;
7753;SDS011;3921;42.266;23.122;2022-12-07T02:42:40;22.97;;;12.17;;
7753;SDS011;3921;42.266;23.122;2022-12-07T02:45:13;18.37;;;11.07;;
7753;SDS011;3921;42.266;23.122;2022-12-07T02:47:46;18.03;;;11.73;;
7753;SDS011;3921;42.266;23.122;2022-12-07T02:50:20;18.17;;;10.30;;
7753;SDS011;3921;42.266;23.122;2022-12-07T02:52:51;18.90;;;11.13;;
7753;SDS011;3921;42.266;23.122;2022-12-07T02:55:19;23.17;;;13.00;;
7753;SDS011;3921;42.266;23.122;2022-12-07T02:58:02;26.63;;;14.10;;
7753;SDS011;3921;42.266;23.122;2022-12-07T03:00:58;26.17;;;13.20;;
7753;SDS011;3921;42.266;23.122;2022-12-07T03:03:41;21.83;;;13.67;;
7753;SDS011;3921;42.266;23.122;2022-12-07T03:06:16;25.23;;;12.63;;
7753;SDS011;3921;42.266;23.122;2022-12-07T03:09:01;25.37;;;14.17;;
7753;SDS011;3921;42.266;23.122;2022-12-07T03:11:38;22.30;;;12.93;;
7753;SDS011;3921;42.266;23.122;2022-12-07T03:14:14;20.47;;;12.97;;
7753;SDS011;3921;42.266;23.122;2022-12-07T03:16:49;24.77;;;14.20;;
7753;SDS011;3921;42.266;23.122;2022-12-07T03:19:22;24.70;;;14.10;;
7753;SDS011;3921;42.266;23.122;2022-12-07T03:21:51;27.07;;;14.50;;
7753;SDS011;3921;42.266;23.122;2022-12-07T03:24:24;24.40;;;15.43;;
7753;SDS011;3921;42.266;23.122;2022-12-07T03:26:55;29.20;;;15.40;;
7753;SDS011;3921;42.266;23.122;2022-12-07T03:29:28;23.00;;;15.57;;
7753;SDS011;3921;42.266;23.122;2022-12-07T03:32:02;23.70;;;14.90;;
7753;SDS011;3921;42.266;23.122;2022-12-07T03:34:34;19.97;;;12.50;;
7753;SDS011;3921;42.266;23.122;2022-12-07T03:37:06;23.90;;;12.63;;
7753;SDS011;3921;42.266;23.122;2022-12-07T03:39:41;22.13;;;13.53;;
7753;SDS011;3921;42.266;23.122;2022-12-07T03:42:16;22.07;;;13.20;;
7753;SDS011;3921;42.266;23.122;2022-12-07T03:44:44;20.47;;;12.67;;
7753;SDS011;3921;42.266;23.122;2022-12-07T03:47:13;19.77;;;12.20;;
7753;SDS011;3921;42.266;23.122;2022-12-07T03:49:49;20.73;;;12.90;;
7753;SDS011;3921;42.266;23.122;2022-12-07T03:52:22;22.17;;;13.83;;
7753;SDS011;3921;42.266;23.122;2022-12-07T03:54:54;25.53;;;14.03;;
7753;SDS011;3921;42.266;23.122;2022-12-07T03:57:28;21.07;;;12.63;;
7753;SDS011;3921;42.266;23.122;2022-12-07T04:00:00;20.07;;;12.73;;
7753;SDS011;3921;42.266;23.122;2022-12-07T04:02:30;25.17;;;13.43;;
7753;SDS011;3921;42.266;23.122;2022-12-07T04:05:02;25.17;;;13.53;;
7753;SDS011;3921;42.266;23.122;2022-12-07T04:07:30;21.80;;;12.87;;
7753;SDS011;3921;42.266;23.122;2022-12-07T04:09:57;22.27;;;12.63;;
7753;SDS011;3921;42.266;23.122;2022-12-07T04:12:24;17.33;;;10.73;;
7753;SDS011;3921;42.266;23.122;2022-12-07T04:14:51;16.33;;;9.63;;
7753;SDS011;3921;42.266;23.122;2022-12-07T04:17:18;17.70;;;10.80;;
7753;SDS011;3921;42.266;23.122;2022-12-07T04:19:46;16.63;;;9.73;;
7753;SDS011;3921;42.266;23.122;2022-12-07T04:22:15;14.60;;;9.47;;
7753;SDS011;3921;42.266;23.122;2022-12-07T04:24:42;17.00;;;10.17;;
7753;SDS011;3921;42.266;23.122;2022-12-07T04:27:09;20.23;;;11.50;;
7753;SDS011;3921;42.266;23.122;2022-12-07T04:29:36;18.57;;;11.33;;
7753;SDS011;3921;42.266;23.122;2022-12-07T04:32:04;26.47;;;14.43;;
7753;SDS011;3921;42.266;23.122;2022-12-07T04:34:31;28.73;;;15.10;;
7753;SDS011;3921;42.266;23.122;2022-12-07T04:37:00;26.30;;;14.93;;
7753;SDS011;3921;42.266;23.122;2022-12-07T04:39:27;24.93;;;15.83;;
7753;SDS011;3921;42.266;23.122;2022-12-07T04:42:11;31.63;;;17.50;;
7753;SDS011;3921;42.266;23.122;2022-12-07T04:44:39;30.30;;;19.73;;
7753;SDS011;3921;42.266;23.122;2022-12-07T04:47:06;27.03;;;19.13;;
7753;SDS011;3921;42.266;23.122;2022-12-07T04:49:33;33.43;;;20.63;;
7753;SDS011;3921;42.266;23.122;2022-12-07T04:52:02;33.37;;;19.80;;
7753;SDS011;3921;42.266;23.122;2022-12-07T04:54:29;32.30;;;19.93;;
7753;SDS011;3921;42.266;23.122;2022-12-07T04:56:56;36.73;;;20.87;;
7753;SDS011;3921;42.266;23.122;2022-12-07T04:59:23;36.70;;;22.57;;
7753;SDS011;3921;42.266;23.122;2022-12-07T05:01:50;37.50;;;22.57;;
7753;SDS011;3921;42.266;23.122;2022-12-07T05:04:17;32.77;;;20.47;;
7753;SDS011;3921;42.266;23.122;2022-12-07T05:06:46;35.67;;;21.73;;
7753;SDS011;3921;42.266;23.122;2022-12-07T05:09:15;36.37;;;21.23;;
7753;SDS011;3921;42.266;23.122;2022-12-07T05:11:42;39.30;;;21.90;;
7753;SDS011;3921;42.266;23.122;2022-12-07T05:14:19;57.87;;;25.70;;
7753;SDS011;3921;42.266;23.122;2022-12-07T05:16:47;57.47;;;25.67;;
7753;SDS011;3921;42.266;23.122;2022-12-07T05:19:16;67.03;;;27.53;;
7753;SDS011;3921;42.266;23.122;2022-12-07T05:21:44;93.27;;;30.67;;
7753;SDS011;3921;42.266;23.122;2022-12-07T05:24:12;99.37;;;34.63;;
7753;SDS011;3921;42.266;23.122;2022-12-07T05:26:42;102.87;;;35.43;;
7753;SDS011;3921;42.266;23.122;2022-12-07T05:29:26;114.20;;;37.23;;
7753;SDS011;3921;42.266;23.122;2022-12-07T05:32:30;103.87;;;34.83;;
7753;SDS011;3921;42.266;23.122;2022-12-07T05:58:22;264.37;;;177.03;;
7753;SDS011;3921;42.266;23.122;2022-12-07T06:08:09;40.33;;;26.33;;
7753;SDS011;3921;42.266;23.122;2022-12-07T06:11:13;55.67;;;31.47;;
7753;SDS011;3921;42.266;23.122;2022-12-07T06:17:06;45.50;;;30.17;;
7753;SDS011;3921;42.266;23.122;2022-12-07T06:19:45;46.13;;;28.50;;
7753;SDS011;3921;42.266;23.122;2022-12-07T06:22:12;44.00;;;28.47;;
7753;SDS011;3921;42.266;23.122;2022-12-07T06:24:41;43.17;;;28.70;;
7753;SDS011;3921;42.266;23.122;2022-12-07T06:27:08;47.10;;;26.23;;
7753;SDS011;3921;42.266;23.122;2022-12-07T06:29:38;41.00;;;28.30;;
7753;SDS011;3921;42.266;23.122;2022-12-07T06:32:12;46.23;;;28.40;;
7753;SDS011;3921;42.266;23.122;2022-12-07T06:35:04;45.57;;;28.07;;
7753;SDS011;3921;42.266;23.122;2022-12-07T06:37:34;41.07;;;26.40;;
7753;SDS011;3921;42.266;23.122;2022-12-07T06:40:27;46.33;;;30.00;;
7753;SDS011;3921;42.266;23.122;2022-12-07T06:43:18;46.63;;;29.87;;
7753;SDS011;3921;42.266;23.122;2022-12-07T06:46:04;43.57;;;29.17;;
7753;SDS011;3921;42.266;23.122;2022-12-07T06:48:55;46.47;;;28.13;;
7753;SDS011;3921;42.266;23.122;2022-12-07T06:51:22;42.07;;;25.70;;
7753;SDS011;3921;42.266;23.122;2022-12-07T07:00:36;57.63;;;35.97;;
7753;SDS011;3921;42.266;23.122;2022-12-07T07:17:36;50.83;;;33.17;;
7753;SDS011;3921;42.266;23.122;2022-12-07T07:20:06;52.67;;;32.90;;
7753;SDS011;3921;42.266;23.122;2022-12-07T07:22:49;53.53;;;34.23;;
7753;SDS011;3921;42.266;23.122;2022-12-07T07:25:23;53.53;;;33.70;;
7753;SDS011;3921;42.266;23.122;2022-12-07T07:27:50;49.07;;;31.37;;
7753;SDS011;3921;42.266;23.122;2022-12-07T07:30:23;54.87;;;32.97;;
7753;SDS011;3921;42.266;23.122;2022-12-07T07:32:50;50.00;;;31.93;;
7753;SDS011;3921;42.266;23.122;2022-12-07T07:35:31;71.00;;;44.07;;
7753;SDS011;3921;42.266;23.122;2022-12-07T07:41:30;71.33;;;45.33;;
7753;SDS011;3921;42.266;23.122;2022-12-07T07:44:16;83.20;;;46.23;;
7753;SDS011;3921;42.266;23.122;2022-12-07T07:46:54;61.50;;;36.20;;
7753;SDS011;3921;42.266;23.122;2022-12-07T07:49:24;76.90;;;42.27;;
7753;SDS011;3921;42.266;23.122;2022-12-07T07:51:54;65.87;;;39.73;;
7753;SDS011;3921;42.266;23.122;2022-12-07T07:54:24;62.13;;;38.87;;
7753;SDS011;3921;42.266;23.122;2022-12-07T07:56:55;56.10;;;33.67;;
7753;SDS011;3921;42.266;23.122;2022-12-07T07:59:23;45.70;;;28.37;;
7753;SDS011;3921;42.266;23.122;2022-12-07T09:30:14;25.30;;;12.57;;
7753;SDS011;3921;42.266;23.122;2022-12-07T09:32:58;23.17;;;11.40;;
7753;SDS011;3921;42.266;23.122;2022-12-07T09:35:46;21.93;;;12.47;;
7753;SDS011;3921;42.266;23.122;2022-12-07T09:38:49;19.47;;;11.50;;
7753;SDS011;3921;42.266;23.122;2022-12-07T09:41:36;20.40;;;11.67;;
7753;SDS011;3921;42.266;23.122;2022-12-07T12:57:47;6.47;;;3.13;;
7753;SDS011;3921;42.266;23.122;2022-12-07T13:00:49;9.27;;;3.87;;
7753;SDS011;3921;42.266;23.122;2022-12-07T13:03:53;6.57;;;3.87;;
7753;SDS011;3921;42.266;23.122;2022-12-07T13:06:32;6.30;;;3.53;;
7753;SDS011;3921;42.266;23.122;2022-12-07T13:09:33;6.63;;;4.67;;
7753;SDS011;3921;42.266;23.122;2022-12-07T13:26:00;8.63;;;5.27;;
7753;SDS011;3921;42.266;23.122;2022-12-07T13:29:19;8.13;;;4.93;;
7753;SDS011;3921;42.266;23.122;2022-12-07T13:31:57;9.73;;;5.10;;
7753;SDS011;3921;42.266;23.122;2022-12-07T13:34:29;7.50;;;5.27;;
7753;SDS011;3921;42.266;23.122;2022-12-07T13:37:24;15.90;;;6.40;;
7753;SDS011;3921;42.266;23.122;2022-12-07T13:40:19;11.90;;;5.73;;
7753;SDS011;3921;42.266;23.122;2022-12-07T13:43:20;8.40;;;5.77;;
7753;SDS011;3921;42.266;23.122;2022-12-07T13:45:55;11.63;;;6.23;;
7753;SDS011;3921;42.266;23.122;2022-12-07T13:48:30;10.90;;;6.30;;
7753;SDS011;3921;42.266;23.122;2022-12-07T13:51:20;12.70;;;6.70;;
7753;SDS011;3921;42.266;23.122;2022-12-07T13:53:53;13.67;;;6.80;;
7753;SDS011;3921;42.266;23.122;2022-12-07T13:56:52;11.53;;;6.33;;
7753;SDS011;3921;42.266;23.122;2022-12-07T13:59:29;10.27;;;6.30;;
7753;SDS011;3921;42.266;23.122;2022-12-07T14:02:22;9.60;;;6.00;;
7753;SDS011;3921;42.266;23.122;2022-12-07T14:05:07;9.83;;;6.13;;
7753;SDS011;3921;42.266;23.122;2022-12-07T14:07:55;8.40;;;5.83;;
7753;SDS011;3921;42.266;23.122;2022-12-07T14:10:32;10.20;;;6.53;;
7753;SDS011;3921;42.266;23.122;2022-12-07T14:16:31;12.90;;;6.13;;
7753;SDS011;3921;42.266;23.122;2022-12-07T14:22:28;9.17;;;6.37;;
7753;SDS011;3921;42.266;23.122;2022-12-07T14:25:17;9.97;;;6.57;;
7753;SDS011;3921;42.266;23.122;2022-12-07T14:28:00;12.23;;;7.40;;
7753;SDS011;3921;42.266;23.122;2022-12-07T14:33:58;13.70;;;8.97;;
7753;SDS011;3921;42.266;23.122;2022-12-07T14:36:46;15.27;;;8.30;;
7753;SDS011;3921;42.266;23.122;2022-12-07T14:39:23;17.00;;;8.57;;
7753;SDS011;3921;42.266;23.122;2022-12-07T14:42:13;19.60;;;9.17;;
7753;SDS011;3921;42.266;23.122;2022-12-07T14:44:49;15.60;;;9.50;;
7753;SDS011;3921;42.266;23.122;2022-12-07T14:47:35;17.00;;;8.90;;
7753;SDS011;3921;42.266;23.122;2022-12-07T14:50:15;12.77;;;8.13;;
7753;SDS011;3921;42.266;23.122;2022-12-07T14:52:49;16.80;;;8.57;;
7753;SDS011;3921;42.266;23.122;2022-12-07T14:55:44;18.43;;;9.30;;
7753;SDS011;3921;42.266;23.122;2022-12-07T14:58:21;15.00;;;9.40;;
7753;SDS011;3921;42.266;23.122;2022-12-07T15:00:58;16.90;;;9.33;;
7753;SDS011;3921;42.266;23.122;2022-12-07T15:06:24;16.93;;;9.07;;
7753;SDS011;3921;42.266;23.122;2022-12-07T15:09:20;14.40;;;9.37;;
7753;SDS011;3921;42.266;23.122;2022-12-07T15:12:03;15.97;;;8.90;;
7753;SDS011;3921;42.266;23.122;2022-12-07T15:14:51;15.10;;;8.80;;
7753;SDS011;3921;42.266;23.122;2022-12-07T15:17:19;14.93;;;9.47;;
7753;SDS011;3921;42.266;23.122;2022-12-07T15:23:09;17.80;;;11.60;;
7753;SDS011;3921;42.266;23.122;2022-12-07T15:25:48;19.83;;;11.63;;
7753;SDS011;3921;42.266;23.122;2022-12-07T15:28:24;20.77;;;11.80;;
7753;SDS011;3921;42.266;23.122;2022-12-07T15:31:24;24.50;;;14.80;;
7753;SDS011;3921;42.266;23.122;2022-12-07T15:34:22;26.33;;;14.43;;
7753;SDS011;3921;42.266;23.122;2022-12-07T15:36:50;19.17;;;12.33;;
7753;SDS011;3921;42.266;23.122;2022-12-07T15:39:22;20.53;;;12.37;;
7753;SDS011;3921;42.266;23.122;2022-12-07T15:41:53;17.67;;;12.13;;
7753;SDS011;3921;42.266;23.122;2022-12-07T15:44:54;22.33;;;14.13;;
7753;SDS011;3921;42.266;23.122;2022-12-07T15:47:30;25.37;;;13.53;;
7753;SDS011;3921;42.266;23.122;2022-12-07T15:50:04;24.53;;;15.67;;
7753;SDS011;3921;42.266;23.122;2022-12-07T15:52:40;14.70;;;10.13;;
7753;SDS011;3921;42.266;23.122;2022-12-07T15:55:09;19.67;;;12.13;;
7753;SDS011;3921;42.266;23.122;2022-12-07T15:57:46;19.23;;;11.00;;
7753;SDS011;3921;42.266;23.122;2022-12-07T16:00:39;15.87;;;10.60;;
7753;SDS011;3921;42.266;23.122;2022-12-07T16:03:14;17.53;;;10.90;;
7753;SDS011;3921;42.266;23.122;2022-12-07T16:12:03;17.80;;;10.87;;
7753;SDS011;3921;42.266;23.122;2022-12-07T16:14:57;17.30;;;10.57;;
7753;SDS011;3921;42.266;23.122;2022-12-07T16:18:10;16.20;;;10.63;;
7753;SDS011;3921;42.266;23.122;2022-12-07T16:21:18;20.13;;;11.20;;
7753;SDS011;3921;42.266;23.122;2022-12-07T16:23:56;15.43;;;10.43;;
7753;SDS011;3921;42.266;23.122;2022-12-07T16:26:27;19.30;;;11.27;;
7753;SDS011;3921;42.266;23.122;2022-12-07T16:28:58;17.73;;;11.10;;
7753;SDS011;3921;42.266;23.122;2022-12-07T16:31:26;17.93;;;9.93;;
7753;SDS011;3921;42.266;23.122;2022-12-07T16:34:12;17.47;;;10.77;;
7753;SDS011;3921;42.266;23.122;2022-12-07T16:36:55;15.90;;;11.60;;
7753;SDS011;3921;42.266;23.122;2022-12-07T16:39:40;14.40;;;11.00;;
7753;SDS011;3921;42.266;23.122;2022-12-07T16:42:36;16.83;;;10.77;;
7753;SDS011;3921;42.266;23.122;2022-12-07T16:45:04;18.63;;;12.27;;
7753;SDS011;3921;42.266;23.122;2022-12-07T16:47:38;16.90;;;11.13;;
7753;SDS011;3921;42.266;23.122;2022-12-07T16:50:07;18.07;;;11.67;;
7753;SDS011;3921;42.266;23.122;2022-12-07T16:55:35;25.20;;;15.47;;
7753;SDS011;3921;42.266;23.122;2022-12-07T16:58:06;26.17;;;15.90;;
7753;SDS011;3921;42.266;23.122;2022-12-07T17:00:35;27.07;;;16.33;;
7753;SDS011;3921;42.266;23.122;2022-12-07T17:18:38;26.73;;;13.10;;
7753;SDS011;3921;42.266;23.122;2022-12-07T17:21:08;22.47;;;13.90;;
7753;SDS011;3921;42.266;23.122;2022-12-07T17:37:16;29.03;;;17.33;;
7753;SDS011;3921;42.266;23.122;2022-12-07T17:40:05;40.90;;;25.43;;
7753;SDS011;3921;42.266;23.122;2022-12-07T17:42:51;80.67;;;41.53;;
7753;SDS011;3921;42.266;23.122;2022-12-07T17:45:27;57.07;;;30.17;;
7753;SDS011;3921;42.266;23.122;2022-12-07T17:48:23;61.70;;;32.70;;
7753;SDS011;3921;42.266;23.122;2022-12-07T17:51:10;56.17;;;30.27;;
7753;SDS011;3921;42.266;23.122;2022-12-07T17:54:01;83.13;;;39.70;;
7753;SDS011;3921;42.266;23.122;2022-12-07T17:56:40;69.33;;;34.00;;
7753;SDS011;3921;42.266;23.122;2022-12-07T17:59:08;59.20;;;31.37;;
7753;SDS011;3921;42.266;23.122;2022-12-07T18:01:35;61.70;;;31.03;;
7753;SDS011;3921;42.266;23.122;2022-12-07T18:04:02;102.77;;;43.30;;
7753;SDS011;3921;42.266;23.122;2022-12-07T18:06:33;68.63;;;33.17;;
7753;SDS011;3921;42.266;23.122;2022-12-07T18:09:03;50.33;;;26.33;;
7753;SDS011;3921;42.266;23.122;2022-12-07T18:12:04;70.17;;;34.83;;
7753;SDS011;3921;42.266;23.122;2022-12-07T18:14:50;105.00;;;45.67;;
7753;SDS011;3921;42.266;23.122;2022-12-07T18:17:30;64.97;;;32.37;;
7753;SDS011;3921;42.266;23.122;2022-12-07T18:20:23;55.90;;;30.10;;
7753;SDS011;3921;42.266;23.122;2022-12-07T18:22:50;57.43;;;31.97;;
7753;SDS011;3921;42.266;23.122;2022-12-07T18:28:50;80.67;;;40.70;;
7753;SDS011;3921;42.266;23.122;2022-12-07T18:31:20;52.27;;;32.10;;
7753;SDS011;3921;42.266;23.122;2022-12-07T18:34:15;54.50;;;30.57;;
7753;SDS011;3921;42.266;23.122;2022-12-07T18:37:20;50.43;;;29.77;;
7753;SDS011;3921;42.266;23.122;2022-12-07T18:40:09;58.67;;;31.87;;
7753;SDS011;3921;42.266;23.122;2022-12-07T18:42:53;92.40;;;44.20;;
7753;SDS011;3921;42.266;23.122;2022-12-07T18:45:23;86.53;;;47.13;;
7753;SDS011;3921;42.266;23.122;2022-12-07T18:47:53;84.07;;;41.83;;
7753;SDS011;3921;42.266;23.122;2022-12-07T18:50:27;62.20;;;35.37;;
7753;SDS011;3921;42.266;23.122;2022-12-07T18:53:05;53.37;;;32.27;;
7753;SDS011;3921;42.266;23.122;2022-12-07T18:56:13;52.17;;;29.63;;
7753;SDS011;3921;42.266;23.122;2022-12-07T18:58:41;53.13;;;29.07;;
7753;SDS011;3921;42.266;23.122;2022-12-07T19:01:27;55.93;;;31.80;;
7753;SDS011;3921;42.266;23.122;2022-12-07T19:03:55;54.63;;;32.93;;
7753;SDS011;3921;42.266;23.122;2022-12-07T19:06:42;52.60;;;31.70;;
7753;SDS011;3921;42.266;23.122;2022-12-07T19:09:47;52.57;;;30.07;;
7753;SDS011;3921;42.266;23.122;2022-12-07T19:12:19;62.30;;;31.90;;
7753;SDS011;3921;42.266;23.122;2022-12-07T19:17:52;52.90;;;29.40;;
7753;SDS011;3921;42.266;23.122;2022-12-07T19:20:34;47.87;;;28.47;;
7753;SDS011;3921;42.266;23.122;2022-12-07T19:23:05;46.87;;;27.40;;
7753;SDS011;3921;42.266;23.122;2022-12-07T19:31:13;49.50;;;29.47;;
7753;SDS011;3921;42.266;23.122;2022-12-07T19:48:07;40.83;;;26.93;;
7753;SDS011;3921;42.266;23.122;2022-12-07T19:57:23;29.00;;;18.53;;
7753;SDS011;3921;42.266;23.122;2022-12-07T20:03:12;33.47;;;20.37;;
7753;SDS011;3921;42.266;23.122;2022-12-07T20:05:41;37.93;;;21.13;;
7753;SDS011;3921;42.266;23.122;2022-12-07T20:08:12;36.43;;;21.50;;
7753;SDS011;3921;42.266;23.122;2022-12-07T20:10:39;38.27;;;22.93;;
7753;SDS011;3921;42.266;23.122;2022-12-07T20:13:07;40.93;;;26.60;;
7753;SDS011;3921;42.266;23.122;2022-12-07T20:15:51;38.17;;;24.17;;
7753;SDS011;3921;42.266;23.122;2022-12-07T20:18:26;38.03;;;23.57;;
7753;SDS011;3921;42.266;23.122;2022-12-07T20:21:07;37.23;;;21.30;;
7753;SDS011;3921;42.266;23.122;2022-12-07T20:23:34;30.10;;;18.93;;
7753;SDS011;3921;42.266;23.122;2022-12-07T20:26:01;29.40;;;19.23;;
7753;SDS011;3921;42.266;23.122;2022-12-07T20:28:36;35.60;;;21.80;;
7753;SDS011;3921;42.266;23.122;2022-12-07T20:34:07;32.23;;;19.97;;
7753;SDS011;3921;42.266;23.122;2022-12-07T20:39:12;34.47;;;21.23;;
7753;SDS011;3921;42.266;23.122;2022-12-07T20:41:42;38.47;;;22.30;;
7753;SDS011;3921;42.266;23.122;2022-12-07T20:44:36;44.70;;;26.53;;
7753;SDS011;3921;42.266;23.122;2022-12-07T20:47:09;46.77;;;25.63;;
7753;SDS011;3921;42.266;23.122;2022-12-07T20:49:45;44.80;;;25.23;;
7753;SDS011;3921;42.266;23.122;2022-12-07T20:52:20;39.27;;;23.53;;
7753;SDS011;3921;42.266;23.122;2022-12-07T20:55:06;44.93;;;26.80;;
7753;SDS011;3921;42.266;23.122;2022-12-07T20:57:34;44.53;;;27.80;;
7753;SDS011;3921;42.266;23.122;2022-12-07T21:00:01;48.80;;;29.20;;
7753;SDS011;3921;42.266;23.122;2022-12-07T21:02:37;46.83;;;28.33;;
7753;SDS011;3921;42.266;23.122;2022-12-07T21:05:09;51.43;;;29.27;;
7753;SDS011;3921;42.266;23.122;2022-12-07T21:10:20;45.17;;;27.57;;
7753;SDS011;3921;42.266;23.122;2022-12-07T21:15:27;56.57;;;27.73;;
7753;SDS011;3921;42.266;23.122;2022-12-07T21:18:10;53.87;;;29.10;;
7753;SDS011;3921;42.266;23.122;2022-12-07T21:21:03;56.47;;;29.43;;
7753;SDS011;3921;42.266;23.122;2022-12-07T21:23:31;54.00;;;30.33;;
7753;SDS011;3921;42.266;23.122;2022-12-07T21:25:58;58.90;;;31.07;;
7753;SDS011;3921;42.266;23.122;2022-12-07T21:28:28;58.80;;;32.07;;
7753;SDS011;3921;42.266;23.122;2022-12-07T21:30:56;60.13;;;32.90;;
7753;SDS011;3921;42.266;23.122;2022-12-07T21:33:23;48.90;;;30.10;;
7753;SDS011;3921;42.266;23.122;2022-12-07T21:35:51;44.27;;;26.17;;
7753;SDS011;3921;42.266;23.122;2022-12-07T21:38:24;45.80;;;27.43;;
7753;SDS011;3921;42.266;23.122;2022-12-07T21:41:28;48.60;;;27.30;;
7753;SDS011;3921;42.266;23.122;2022-12-07T21:43:56;52.87;;;30.27;;
7753;SDS011;3921;42.266;23.122;2022-12-07T21:46:24;53.80;;;30.90;;
7753;SDS011;3921;42.266;23.122;2022-12-07T21:48:53;53.77;;;31.40;;
7753;SDS011;3921;42.266;23.122;2022-12-07T21:51:22;52.73;;;28.00;;
7753;SDS011;3921;42.266;23.122;2022-12-07T21:53:56;56.03;;;28.93;;
7753;SDS011;3921;42.266;23.122;2022-12-07T21:56:25;45.20;;;26.93;;
7753;SDS011;3921;42.266;23.122;2022-12-07T21:58:54;45.23;;;25.57;;
7753;SDS011;3921;42.266;23.122;2022-12-07T22:01:25;50.50;;;25.83;;
7753;SDS011;3921;42.266;23.122;2022-12-07T22:03:54;42.10;;;26.00;;
7753;SDS011;3921;42.266;23.122;2022-12-07T22:06:23;43.23;;;24.53;;
7753;SDS011;3921;42.266;23.122;2022-12-07T22:08:55;51.43;;;27.33;;
7753;SDS011;3921;42.266;23.122;2022-12-07T22:11:24;50.13;;;27.13;;
7753;SDS011;3921;42.266;23.122;2022-12-07T22:13:52;47.57;;;26.43;;
7753;SDS011;3921;42.266;23.122;2022-12-07T22:16:39;38.60;;;22.43;;
7753;SDS011;3921;42.266;23.122;2022-12-07T22:19:06;43.87;;;24.60;;
7753;SDS011;3921;42.266;23.122;2022-12-07T22:21:34;40.87;;;23.07;;
7753;SDS011;3921;42.266;23.122;2022-12-07T22:24:08;38.17;;;22.97;;
7753;SDS011;3921;42.266;23.122;2022-12-07T22:26:38;40.17;;;23.67;;
7753;SDS011;3921;42.266;23.122;2022-12-07T22:29:05;37.17;;;21.97;;
7753;SDS011;3921;42.266;23.122;2022-12-07T22:31:33;38.27;;;21.00;;
7753;SDS011;3921;42.266;23.122;2022-12-07T22:34:00;32.73;;;19.10;;
7753;SDS011;3921;42.266;23.122;2022-12-07T22:36:27;33.80;;;20.70;;
7753;SDS011;3921;42.266;23.122;2022-12-07T22:38:54;41.40;;;23.97;;
7753;SDS011;3921;42.266;23.122;2022-12-07T22:41:24;39.20;;;22.93;;
7753;SDS011;3921;42.266;23.122;2022-12-07T22:43:53;46.73;;;25.07;;
7753;SDS011;3921;42.266;23.122;2022-12-07T22:46:21;45.73;;;25.73;;
7753;SDS011;3921;42.266;23.122;2022-12-07T22:48:51;45.57;;;24.33;;
7753;SDS011;3921;42.266;23.122;2022-12-07T22:51:21;45.07;;;25.33;;
7753;SDS011;3921;42.266;23.122;2022-12-07T22:53:50;40.33;;;22.67;;
7753;SDS011;3921;42.266;23.122;2022-12-07T22:56:17;42.33;;;22.97;;
7753;SDS011;3921;42.266;23.122;2022-12-07T22:58:47;44.17;;;22.40;;
7753;SDS011;3921;42.266;23.122;2022-12-07T23:01:17;43.87;;;22.63;;
7753;SDS011;3921;42.266;23.122;2022-12-07T23:03:48;35.17;;;21.23;;
7753;SDS011;3921;42.266;23.122;2022-12-07T23:06:17;33.47;;;19.90;;
7753;SDS011;3921;42.266;23.122;2022-12-07T23:08:46;35.13;;;20.00;;
7753;SDS011;3921;42.266;23.122;2022-12-07T23:11:21;36.53;;;20.53;;
7753;SDS011;3921;42.266;23.122;2022-12-07T23:16:44;30.73;;;18.93;;
7753;SDS011;3921;42.266;23.122;2022-12-07T23:19:11;29.70;;;16.67;;